Time;durP1;ratioP1;P1;durP2;ratioP2;P2;SDS_P1;SDS_P2;PMS_P1;PMS_P2;Temp;Humidity;BMP_temperature;BMP_pressure;BME280_temperature;BME280_humidity;BME280_pressure;Samples;Min_cycle;Max_cycle;Signal;HPM_P1;HPM_P2
2021/03/11 00:00:10;;;;;;;8.80;7.73;;;7.80;99.90;;;;;;5049831;28;20265;-77
2021/03/11 00:02:36;;;;;;;9.87;8.90;;;7.60;99.90;;;;;;5035116;28;20190;-77
2021/03/11 00:05:04;;;;;;;11.43;8.93;;;7.60;99.90;;;;;;5035844;28;20588;-75
2021/03/11 00:07:30;;;;;;;11.50;8.90;;;7.50;99.90;;;;;;5054285;28;20435;-78
2021/03/11 00:09:56;;;;;;;12.17;9.13;;;7.40;99.90;;;;;;5059572;28;20464;-79
2021/03/11 00:12:21;;;;;;;10.20;9.10;;;7.20;99.90;;;;;;5024525;28;20182;-76
2021/03/11 00:14:47;;;;;;;11.83;9.30;;;7.20;99.90;;;;;;5051663;28;20243;-76
2021/03/11 00:17:12;;;;;;;10.47;9.17;;;7.00;99.90;;;;;;5049789;28;20181;-78
2021/03/11 00:19:38;;;;;;;12.57;9.47;;;7.00;99.90;;;;;;5058608;28;20216;-77
2021/03/11 00:22:05;;;;;;;15.60;10.07;;;6.90;99.90;;;;;;5044497;28;20199;-78
2021/03/11 00:24:30;;;;;;;12.43;9.10;;;6.90;99.90;;;;;;5048025;28;20495;-77
2021/03/11 00:26:56;;;;;;;12.83;10.33;;;6.90;99.90;;;;;;5055893;28;20467;-77
2021/03/11 00:29:21;;;;;;;13.03;10.20;;;6.80;99.90;;;;;;5034084;28;20733;-77
2021/03/11 00:31:47;;;;;;;11.23;9.70;;;6.80;99.90;;;;;;5053976;28;20182;-79
2021/03/11 00:34:13;;;;;;;12.07;9.33;;;6.80;99.90;;;;;;5035272;28;20221;-76
2021/03/11 00:36:38;;;;;;;11.57;9.57;;;6.80;99.90;;;;;;5052404;28;20186;-77
2021/03/11 00:39:05;;;;;;;12.40;10.37;;;6.80;99.90;;;;;;5046431;28;20214;-77
2021/03/11 00:41:31;;;;;;;11.40;8.80;;;6.80;99.90;;;;;;5062961;28;20192;-76
2021/03/11 00:43:57;;;;;;;11.90;9.40;;;6.90;99.90;;;;;;5052629;28;20445;-79
2021/03/11 00:46:22;;;;;;;15.30;10.43;;;6.90;99.90;;;;;;5064983;28;20236;-77
2021/03/11 00:48:48;;;;;;;12.10;9.37;;;7.00;99.90;;;;;;5053389;28;20217;-77
2021/03/11 00:51:14;;;;;;;9.70;8.70;;;7.00;99.90;;;;;;5065356;28;20190;-77
2021/03/11 00:53:39;;;;;;;9.83;8.63;;;7.00;99.90;;;;;;5039640;28;20190;-78
2021/03/11 00:56:05;;;;;;;11.37;8.80;;;7.00;99.90;;;;;;5065403;28;20477;-79
2021/03/11 00:58:31;;;;;;;10.93;8.97;;;7.00;99.90;;;;;;5049279;28;20679;-78
2021/03/11 01:00:56;;;;;;;13.60;9.40;;;7.00;99.90;;;;;;5059905;28;20476;-78
2021/03/11 01:03:22;;;;;;;10.40;8.57;;;7.00;99.90;;;;;;5084476;28;20205;-79
2021/03/11 01:05:48;;;;;;;11.30;10.10;;;7.00;99.90;;;;;;5074451;28;20194;-79
2021/03/11 01:08:14;;;;;;;12.30;9.20;;;7.00;99.90;;;;;;5041597;28;20267;-77
2021/03/11 01:10:40;;;;;;;13.73;9.97;;;6.90;99.90;;;;;;5033435;28;20263;-77
2021/03/11 01:13:06;;;;;;;13.07;9.43;;;6.90;99.90;;;;;;5047662;28;20443;-77
2021/03/11 01:15:36;;;;;;;17.00;9.90;;;6.80;99.90;;;;;;5038001;28;20473;-77
2021/03/11 01:18:05;;;;;;;12.67;9.97;;;6.80;99.90;;;;;;5063873;28;20206;-76
2021/03/11 01:20:30;;;;;;;11.87;9.27;;;6.80;99.90;;;;;;5073564;28;20460;-80
2021/03/11 01:22:56;;;;;;;10.47;8.33;;;6.80;99.90;;;;;;5064196;28;20618;-78
2021/03/11 01:25:21;;;;;;;10.53;8.70;;;6.80;99.90;;;;;;5078207;28;20281;-77
2021/03/11 01:27:47;;;;;;;11.47;8.77;;;6.90;99.90;;;;;;5050904;28;20225;-76
2021/03/11 01:30:13;;;;;;;10.23;8.17;;;7.00;99.90;;;;;;5060624;28;20263;-78
2021/03/11 01:32:38;;;;;;;10.63;8.83;;;7.10;99.90;;;;;;5056061;28;20183;-77
2021/03/11 01:35:05;;;;;;;9.70;8.43;;;7.10;99.90;;;;;;5061926;28;20435;-78
2021/03/11 01:37:31;;;;;;;9.03;7.97;;;7.20;99.90;;;;;;5056700;28;20196;-77
2021/03/11 01:39:56;;;;;;;10.80;8.20;;;7.20;99.90;;;;;;5028802;28;20441;-78
2021/03/11 01:42:22;;;;;;;9.23;7.63;;;7.40;99.90;;;;;;5066029;28;20189;-77
2021/03/11 01:44:47;;;;;;;9.83;7.67;;;7.40;99.90;;;;;;5062654;28;20185;-77
2021/03/11 01:47:13;;;;;;;9.20;7.60;;;7.50;99.90;;;;;;5038501;28;20189;-76
2021/03/11 01:49:38;;;;;;;9.07;7.20;;;7.60;99.90;;;;;;5043598;28;20595;-76
2021/03/11 01:52:05;;;;;;;8.00;7.20;;;7.60;99.90;;;;;;5052194;28;20684;-75
2021/03/11 01:54:32;;;;;;;11.03;6.67;;;7.70;99.90;;;;;;5056175;28;20678;-77
2021/03/11 01:57:00;;;;;;;8.57;6.70;;;7.80;99.90;;;;;;5060278;28;20448;-77
2021/03/11 01:59:25;;;;;;;7.50;6.80;;;7.80;99.90;;;;;;5036914;28;20509;-77
2021/03/11 02:01:52;;;;;;;10.17;7.53;;;7.80;99.90;;;;;;5054386;28;20888;-77
2021/03/11 02:04:17;;;;;;;8.20;7.13;;;7.80;99.90;;;;;;5055257;28;20193;-78
2021/03/11 02:06:43;;;;;;;9.27;7.20;;;7.90;99.90;;;;;;5049552;28;20448;-78
2021/03/11 02:09:08;;;;;;;7.43;6.63;;;8.00;99.90;;;;;;5068926;28;20236;-77
2021/03/11 02:11:40;;;;;;;11.77;7.37;;;8.00;99.90;;;;;;5068696;28;20187;-77
2021/03/11 02:14:16;;;;;;;9.10;7.07;;;8.00;99.90;;;;;;5052999;28;20190;-79
2021/03/11 02:16:52;;;;;;;12.00;8.20;;;8.00;99.90;;;;;;5079764;28;20427;-76
2021/03/11 02:19:39;;;;;;;12.50;7.60;;;8.10;99.90;;;;;;5066789;28;20512;-77
2021/03/11 02:22:20;;;;;;;8.50;6.63;;;8.10;99.90;;;;;;5051244;28;20437;-76
2021/03/11 02:25:06;;;;;;;11.00;8.00;;;8.10;99.90;;;;;;5044412;28;20434;-77
2021/03/11 02:27:56;;;;;;;10.47;7.20;;;8.20;99.90;;;;;;5030054;28;20433;-77
2021/03/11 02:30:22;;;;;;;11.70;8.60;;;8.20;99.90;;;;;;5052529;28;20543;-79
2021/03/11 02:32:49;;;;;;;8.90;7.80;;;8.20;99.90;;;;;;5042003;28;20941;-79
2021/03/11 02:35:15;;;;;;;9.63;7.67;;;8.20;99.90;;;;;;5057981;28;20314;-77
2021/03/11 02:37:48;;;;;;;13.80;8.70;;;8.20;99.90;;;;;;5058679;28;20451;-77
2021/03/11 02:40:18;;;;;;;9.60;7.73;;;8.20;99.90;;;;;;5031553;28;20824;-77
2021/03/11 02:42:44;;;;;;;11.67;8.17;;;8.20;99.90;;;;;;5054901;28;20808;-77
2021/03/11 02:45:13;;;;;;;9.50;8.20;;;8.10;99.90;;;;;;5036113;28;20463;-77
2021/03/11 02:47:40;;;;;;;8.57;7.40;;;8.00;99.90;;;;;;5056725;28;20420;-78
2021/03/11 02:50:06;;;;;;;10.53;8.73;;;8.00;99.90;;;;;;5056147;28;20910;-76
2021/03/11 02:52:34;;;;;;;10.70;8.77;;;8.00;99.90;;;;;;5049331;28;20520;-80
2021/03/11 02:55:02;;;;;;;10.43;8.10;;;8.10;99.90;;;;;;5036725;28;20879;-77
2021/03/11 02:57:30;;;;;;;9.97;8.40;;;8.10;99.90;;;;;;5050590;28;20467;-77
2021/03/11 02:59:57;;;;;;;9.20;7.10;;;8.10;99.90;;;;;;5040943;28;20805;-77
2021/03/11 03:02:25;;;;;;;8.93;7.63;;;8.20;99.90;;;;;;5023678;28;20438;-77
2021/03/11 03:04:56;;;;;;;8.87;7.57;;;8.20;99.90;;;;;;5046197;28;20472;-78
2021/03/11 03:07:22;;;;;;;10.80;7.93;;;8.20;99.90;;;;;;5033023;28;20448;-78
2021/03/11 03:09:50;;;;;;;8.23;7.30;;;8.20;99.90;;;;;;5039508;28;20615;-77
2021/03/11 03:12:17;;;;;;;8.83;7.80;;;8.20;99.90;;;;;;5046236;28;20523;-77
2021/03/11 03:14:46;;;;;;;8.60;7.30;;;8.20;99.90;;;;;;5036831;28;20892;-78
2021/03/11 03:17:14;;;;;;;10.37;7.90;;;8.20;99.90;;;;;;5047865;28;20451;-80
2021/03/11 03:19:40;;;;;;;8.30;7.00;;;8.20;99.90;;;;;;5054350;28;20443;-76
2021/03/11 03:22:07;;;;;;;8.67;7.07;;;8.20;99.90;;;;;;5049185;28;20442;-77
2021/03/11 03:24:34;;;;;;;10.43;7.10;;;8.20;99.90;;;;;;5052807;28;20462;-77
2021/03/11 03:26:59;;;;;;;9.00;6.80;;;8.20;99.90;;;;;;5059281;28;20432;-76
2021/03/11 03:29:26;;;;;;;12.53;7.40;;;8.20;99.90;;;;;;5055915;28;20545;-77
2021/03/11 03:31:51;;;;;;;8.80;7.23;;;8.20;99.90;;;;;;5044861;28;20183;-76
2021/03/11 03:34:17;;;;;;;10.50;7.50;;;8.20;99.90;;;;;;5039401;28;20547;-76
2021/03/11 03:36:42;;;;;;;9.43;7.20;;;8.20;99.90;;;;;;5035612;28;20244;-78
2021/03/11 03:39:08;;;;;;;8.40;6.67;;;8.20;99.90;;;;;;5054104;28;20202;-77
2021/03/11 03:41:39;;;;;;;9.10;6.97;;;8.20;99.90;;;;;;5053460;28;20182;-76
2021/03/11 03:44:07;;;;;;;11.03;8.30;;;8.20;99.90;;;;;;5020362;28;20467;-76
2021/03/11 03:46:33;;;;;;;9.27;6.20;;;8.20;99.90;;;;;;5040736;28;20425;-75
2021/03/11 03:49:02;;;;;;;7.37;6.53;;;8.20;99.90;;;;;;5059541;28;20870;-78
2021/03/11 03:51:31;;;;;;;8.00;6.70;;;8.20;99.90;;;;;;5034748;28;20424;-78
2021/03/11 03:54:08;;;;;;;8.43;7.53;;;8.20;99.90;;;;;;5031474;28;20444;-77
2021/03/11 03:56:37;;;;;;;8.97;7.07;;;8.20;99.90;;;;;;5069832;28;20424;-79
2021/03/11 03:59:10;;;;;;;7.13;6.43;;;8.20;99.90;;;;;;5053945;28;20465;-78
2021/03/11 04:01:38;;;;;;;8.30;6.80;;;8.20;99.90;;;;;;5046705;28;20460;-78
2021/03/11 04:04:06;;;;;;;9.57;7.07;;;8.20;99.90;;;;;;5048235;28;20429;-76
2021/03/11 04:06:33;;;;;;;8.60;7.53;;;8.30;99.90;;;;;;5035533;28;20523;-79
2021/03/11 04:09:01;;;;;;;8.73;6.97;;;8.30;99.90;;;;;;5042225;28;20440;-77
2021/03/11 04:11:28;;;;;;;7.20;6.33;;;8.30;99.90;;;;;;5044248;28;20445;-79
2021/03/11 04:13:54;;;;;;;9.20;6.93;;;8.40;99.90;;;;;;5077762;28;20467;-78
2021/03/11 04:16:21;;;;;;;8.57;6.43;;;8.30;99.90;;;;;;5062192;28;20440;-80
2021/03/11 04:18:50;;;;;;;8.80;7.30;;;8.40;99.90;;;;;;5056326;28;20479;-80
2021/03/11 04:21:16;;;;;;;10.73;8.80;;;8.40;99.90;;;;;;5064515;28;20447;-80
2021/03/11 04:23:43;;;;;;;7.80;7.00;;;8.40;99.90;;;;;;5039913;28;20455;-78
2021/03/11 04:26:09;;;;;;;9.20;6.90;;;8.40;99.90;;;;;;5066444;28;20439;-80
2021/03/11 04:28:35;;;;;;;7.90;6.93;;;8.40;99.90;;;;;;5031999;28;21004;-79
2021/03/11 04:31:02;;;;;;;9.30;8.00;;;8.40;99.90;;;;;;5065244;28;20210;-80
2021/03/11 04:33:28;;;;;;;8.13;6.30;;;8.30;99.90;;;;;;5058186;28;20432;-79
2021/03/11 04:35:54;;;;;;;8.53;6.73;;;8.30;99.90;;;;;;5054731;28;20438;-77
2021/03/11 04:38:20;;;;;;;16.10;7.07;;;8.30;99.90;;;;;;5041755;28;20468;-81
2021/03/11 04:40:46;;;;;;;9.87;6.77;;;8.30;99.90;;;;;;5039017;28;20429;-79
2021/03/11 04:43:12;;;;;;;8.10;6.50;;;8.30;99.90;;;;;;5063999;28;20564;-77
2021/03/11 04:45:42;;;;;;;9.90;7.80;;;8.30;99.90;;;;;;5059836;28;20438;-80
2021/03/11 04:48:10;;;;;;;9.50;7.37;;;8.30;99.90;;;;;;5064149;28;20452;-79
2021/03/11 04:50:41;;;;;;;10.87;7.40;;;8.30;99.90;;;;;;5066215;28;20496;-78
2021/03/11 04:53:07;;;;;;;9.20;6.90;;;8.40;99.90;;;;;;5045457;28;20687;-80
2021/03/11 04:55:34;;;;;;;10.53;8.20;;;8.40;99.90;;;;;;5043613;28;20775;-79
2021/03/11 04:58:01;;;;;;;7.67;6.70;;;8.40;99.90;;;;;;5045611;28;20794;-79
2021/03/11 05:00:27;;;;;;;8.33;7.53;;;8.40;99.90;;;;;;5061266;28;20424;-80
2021/03/11 05:02:54;;;;;;;7.83;7.03;;;8.40;99.90;;;;;;5049419;28;20415;-79
2021/03/11 05:05:34;;;;;;;8.23;7.43;;;8.50;99.90;;;;;;5064676;28;20786;-78
2021/03/11 05:08:00;;;;;;;9.67;6.83;;;8.50;99.90;;;;;;5068709;28;20452;-78
2021/03/11 05:10:26;;;;;;;14.50;7.13;;;8.50;99.90;;;;;;5061482;28;20839;-79
2021/03/11 05:12:51;;;;;;;7.63;6.43;;;8.50;99.90;;;;;;5061469;28;20685;-78
2021/03/11 05:15:17;;;;;;;8.73;6.70;;;8.50;99.90;;;;;;5062128;28;20416;-79
2021/03/11 05:17:42;;;;;;;10.37;6.67;;;8.50;99.90;;;;;;5061143;28;20174;-78
2021/03/11 05:20:09;;;;;;;10.47;7.40;;;8.50;99.90;;;;;;5060505;28;20194;-80
2021/03/11 05:22:34;;;;;;;7.13;6.40;;;8.50;99.90;;;;;;5061971;28;20190;-79
2021/03/11 05:25:00;;;;;;;9.53;7.27;;;8.50;99.90;;;;;;5035318;28;20440;-78
2021/03/11 05:27:25;;;;;;;7.77;6.60;;;8.60;99.90;;;;;;5048801;28;20190;-80
2021/03/11 05:29:51;;;;;;;11.00;7.40;;;8.50;99.90;;;;;;5050402;28;20210;-81
2021/03/11 05:32:16;;;;;;;9.00;7.70;;;8.50;99.90;;;;;;5046138;28;20681;-80
2021/03/11 05:34:43;;;;;;;8.73;6.90;;;8.60;99.90;;;;;;5042318;28;20277;-78
2021/03/11 05:37:09;;;;;;;8.07;5.93;;;8.50;99.90;;;;;;5058798;28;20179;-80
2021/03/11 05:39:34;;;;;;;9.03;6.80;;;8.50;99.90;;;;;;5065306;28;20495;-79
2021/03/11 05:42:01;;;;;;;7.37;6.53;;;8.50;99.90;;;;;;5062640;28;20315;-78
2021/03/11 05:44:27;;;;;;;6.60;5.67;;;8.50;99.90;;;;;;5064135;28;20349;-79
2021/03/11 05:46:54;;;;;;;6.97;6.17;;;8.50;99.90;;;;;;5062927;28;20425;-80
2021/03/11 05:49:22;;;;;;;9.03;6.80;;;8.60;99.90;;;;;;5049907;28;20474;-78
2021/03/11 05:51:47;;;;;;;8.47;7.10;;;8.60;99.90;;;;;;5063775;28;20428;-78
2021/03/11 05:54:13;;;;;;;9.20;7.20;;;8.60;99.90;;;;;;5040116;28;20432;-79
2021/03/11 05:56:39;;;;;;;7.20;6.30;;;8.60;99.90;;;;;;5047125;28;20244;-78
2021/03/11 05:59:06;;;;;;;10.30;7.30;;;8.50;99.90;;;;;;5067568;28;20217;-80
2021/03/11 06:01:32;;;;;;;7.20;6.50;;;8.50;99.90;;;;;;5054107;28;20627;-78
2021/03/11 06:04:00;;;;;;;8.10;7.30;;;8.50;99.90;;;;;;5039550;28;20458;-81
2021/03/11 06:06:26;;;;;;;9.23;7.37;;;8.50;99.90;;;;;;5045661;28;20894;-80
2021/03/11 06:08:54;;;;;;;6.97;6.27;;;8.50;99.90;;;;;;5063784;28;20468;-79
2021/03/11 06:11:22;;;;;;;8.37;6.10;;;8.60;99.90;;;;;;5051164;28;20467;-79
2021/03/11 06:13:49;;;;;;;10.10;7.47;;;8.60;99.90;;;;;;5058626;28;20445;-78
2021/03/11 06:16:24;;;;;;;7.17;6.00;;;8.60;99.90;;;;;;5073748;28;20462;-78
2021/03/11 06:18:50;;;;;;;6.80;6.10;;;8.60;99.90;;;;;;5064194;28;20435;-80
2021/03/11 06:21:20;;;;;;;6.77;5.30;;;8.70;99.90;;;;;;5066154;28;20515;-80
2021/03/11 06:23:45;;;;;;;5.90;4.90;;;8.60;99.90;;;;;;5068740;28;20444;-80
2021/03/11 06:26:12;;;;;;;7.20;5.30;;;8.70;99.90;;;;;;5073647;28;20424;-78
2021/03/11 06:28:46;;;;;;;5.60;5.10;;;8.80;99.90;;;;;;5077832;28;20241;-79
2021/03/11 06:31:23;;;;;;;7.03;5.40;;;8.80;99.90;;;;;;5073296;28;20463;-80
2021/03/11 06:33:50;;;;;;;5.83;5.33;;;8.80;99.90;;;;;;5075571;28;20415;-79
2021/03/11 06:36:17;;;;;;;6.37;5.23;;;8.80;99.90;;;;;;5073326;28;20420;-79
2021/03/11 06:38:43;;;;;;;7.70;6.23;;;8.80;99.90;;;;;;5071384;28;20429;-80
2021/03/11 06:41:09;;;;;;;7.83;6.00;;;8.80;99.90;;;;;;5076315;28;20480;-79
2021/03/11 06:43:49;;;;;;;6.70;5.07;;;8.90;99.90;;;;;;5069425;28;20198;-80
2021/03/11 06:46:15;;;;;;;7.00;5.27;;;8.90;99.90;;;;;;5079181;28;20439;-79
2021/03/11 06:48:40;;;;;;;5.13;4.60;;;8.90;99.90;;;;;;5076039;28;20437;-79
2021/03/11 06:51:16;;;;;;;6.20;5.60;;;8.90;99.90;;;;;;5062857;28;20213;-80
2021/03/11 06:53:56;;;;;;;7.43;5.60;;;8.90;99.90;;;;;;5066288;28;20178;-79
2021/03/11 06:56:22;;;;;;;7.20;5.30;;;9.00;99.90;;;;;;5065267;28;20559;-80
2021/03/11 06:58:55;;;;;;;6.20;4.30;;;9.00;99.90;;;;;;5070782;28;20487;-79
2021/03/11 07:01:21;;;;;;;5.30;4.10;;;8.90;99.90;;;;;;5057129;28;20435;-81
2021/03/11 07:03:48;;;;;;;5.30;4.80;;;9.00;99.90;;;;;;5071592;28;20466;-80
2021/03/11 07:06:33;;;;;;;5.70;4.30;;;9.00;99.90;;;;;;5074007;28;20432;-77
2021/03/11 07:08:59;;;;;;;4.87;4.10;;;9.00;99.90;;;;;;5056082;28;20476;-80
2021/03/11 07:11:26;;;;;;;4.93;4.33;;;9.10;99.90;;;;;;5075193;28;20467;-79
2021/03/11 07:13:54;;;;;;;5.00;4.07;;;9.10;99.90;;;;;;5052432;28;20432;-79
2021/03/11 07:16:21;;;;;;;5.20;4.23;;;9.10;99.90;;;;;;5050548;28;20917;-79
2021/03/11 07:18:48;;;;;;;5.37;4.87;;;9.10;99.90;;;;;;5044084;28;20573;-78
2021/03/11 07:21:34;;;;;;;4.60;3.90;;;9.20;99.90;;;;;;5063040;28;21012;-79
2021/03/11 07:23:59;;;;;;;4.50;4.10;;;9.20;99.90;;;;;;5037475;28;20444;-80
2021/03/11 07:26:25;;;;;;;3.93;3.53;;;9.20;99.90;;;;;;5063459;28;20470;-79
2021/03/11 07:28:50;;;;;;;4.50;4.10;;;9.20;99.90;;;;;;5055403;28;20256;-80
2021/03/11 07:31:27;;;;;;;4.40;4.00;;;9.20;99.90;;;;;;5068917;28;20414;-79
2021/03/11 07:33:54;;;;;;;6.73;3.93;;;9.20;99.90;;;;;;5074577;28;20174;-79
2021/03/11 07:36:20;;;;;;;4.37;3.70;;;9.20;99.90;;;;;;5062496;28;20422;-78
2021/03/11 07:38:47;;;;;;;4.60;3.80;;;9.20;99.90;;;;;;5079796;28;20507;-80
2021/03/11 07:41:13;;;;;;;4.30;3.90;;;9.20;99.90;;;;;;5073847;28;20272;-79
2021/03/11 07:43:39;;;;;;;3.53;3.23;;;9.20;99.90;;;;;;5066280;28;20428;-78
2021/03/11 07:46:06;;;;;;;5.43;4.00;;;9.20;99.90;;;;;;5075415;28;20424;-78
2021/03/11 07:48:32;;;;;;;4.57;4.07;;;9.20;99.90;;;;;;5069204;28;20210;-77
2021/03/11 07:50:58;;;;;;;6.50;4.63;;;9.20;99.90;;;;;;5079108;28;20479;-79
2021/03/11 07:53:25;;;;;;;9.43;4.90;;;9.30;99.90;;;;;;5054914;28;20432;-80
2021/03/11 07:55:55;;;;;;;3.73;3.27;;;9.30;99.90;;;;;;5077943;28;20404;-78
2021/03/11 07:58:24;;;;;;;4.50;3.60;;;9.30;99.90;;;;;;5048595;28;20452;-79
2021/03/11 08:00:51;;;;;;;4.80;4.40;;;9.30;99.90;;;;;;5053677;28;20428;-79
2021/03/11 08:03:27;;;;;;;4.60;4.20;;;9.40;99.90;;;;;;5071970;28;20433;-79
2021/03/11 08:05:54;;;;;;;4.33;3.90;;;9.40;99.90;;;;;;5060513;28;20914;-79
2021/03/11 08:08:25;;;;;;;4.30;3.87;;;9.40;99.90;;;;;;5053274;28;20542;-78
2021/03/11 08:10:53;;;;;;;5.57;4.40;;;9.40;99.90;;;;;;5055449;28;20481;-80
2021/03/11 08:13:35;;;;;;;5.70;4.47;;;9.40;99.90;;;;;;5056835;28;20416;-79
2021/03/11 08:16:13;;;;;;;5.63;4.97;;;9.40;99.90;;;;;;5055041;28;20421;-77
2021/03/11 08:18:40;;;;;;;4.13;3.73;;;9.40;99.90;;;;;;5065510;28;20443;-78
2021/03/11 08:21:27;;;;;;;4.90;4.40;;;9.40;99.90;;;;;;5061765;28;20409;-80
2021/03/11 08:23:57;;;;;;;5.20;4.63;;;9.40;99.90;;;;;;5042887;28;20525;-80
2021/03/11 08:26:37;;;;;;;4.60;4.20;;;9.50;99.90;;;;;;5053428;28;20422;-80
2021/03/11 08:29:17;;;;;;;6.90;4.93;;;9.50;99.90;;;;;;5062347;28;20489;-79
2021/03/11 08:31:43;;;;;;;4.50;4.10;;;9.50;99.90;;;;;;5063064;28;20439;-80
2021/03/11 08:34:08;;;;;;;7.23;4.83;;;9.50;99.90;;;;;;5064177;28;20451;-80
2021/03/11 08:36:37;;;;;;;4.83;4.27;;;9.50;99.90;;;;;;5063401;28;20444;-79
2021/03/11 08:39:29;;;;;;;5.90;4.87;;;9.50;99.90;;;;;;5072798;28;20213;-78
2021/03/11 08:41:55;;;;;;;4.60;4.20;;;9.50;99.90;;;;;;5066075;28;20928;-78
2021/03/11 08:44:44;;;;;;;7.40;5.30;;;9.50;99.90;;;;;;5069355;28;20424;-80
2021/03/11 08:47:11;;;;;;;6.50;4.90;;;9.50;99.90;;;;;;5066472;28;20171;-80
2021/03/11 08:49:42;;;;;;;6.47;4.87;;;9.60;99.90;;;;;;5063749;28;20562;-76
2021/03/11 08:52:45;;;;;;;5.60;4.27;;;9.60;99.90;;;;;;5064011;28;20919;-80
2021/03/11 08:55:39;;;;;;;5.33;4.23;;;9.60;99.90;;;;;;5064510;28;20983;-81
2021/03/11 08:58:25;;;;;;;6.60;4.80;;;9.60;99.90;;;;;;5063717;28;20447;-79
2021/03/11 09:01:04;;;;;;;5.60;4.87;;;9.60;99.90;;;;;;5061452;28;20421;-79
2021/03/11 09:03:49;;;;;;;6.20;4.10;;;9.60;99.90;;;;;;5058232;28;20444;-80
2021/03/11 09:06:17;;;;;;;5.43;4.83;;;9.60;99.90;;;;;;5060348;28;20465;-78
2021/03/11 09:08:52;;;;;;;6.80;4.70;;;9.60;99.90;;;;;;5069880;28;20440;-78
2021/03/11 09:11:23;;;;;;;5.73;4.20;;;9.60;99.90;;;;;;5065692;28;20455;-80
2021/03/11 09:13:51;;;;;;;6.70;4.80;;;9.70;99.90;;;;;;5064201;28;20934;-79
2021/03/11 09:16:24;;;;;;;8.93;4.70;;;9.70;99.90;;;;;;5070027;28;20494;-79
2021/03/11 09:18:57;;;;;;;6.40;5.30;;;9.70;99.90;;;;;;5053892;28;20448;-79
2021/03/11 09:21:32;;;;;;;4.83;4.33;;;9.70;99.90;;;;;;5057454;28;20462;-78
2021/03/11 09:23:57;;;;;;;5.00;4.60;;;9.70;99.90;;;;;;5051426;28;20420;-80
2021/03/11 09:26:29;;;;;;;5.33;4.70;;;9.70;99.90;;;;;;5075211;28;20467;-79
2021/03/11 09:28:56;;;;;;;6.10;4.63;;;9.70;99.90;;;;;;5077122;28;20288;-79
2021/03/11 09:31:24;;;;;;;5.27;4.73;;;9.80;99.90;;;;;;5058969;28;20466;-78
2021/03/11 09:33:50;;;;;;;6.10;5.00;;;9.80;99.90;;;;;;5077719;28;20420;-79
2021/03/11 09:36:16;;;;;;;4.97;4.37;;;9.90;99.90;;;;;;5061346;28;20849;-79
2021/03/11 09:38:43;;;;;;;5.93;5.00;;;9.90;99.90;;;;;;5067998;28;20273;-78
2021/03/11 09:41:09;;;;;;;5.97;4.80;;;9.90;99.90;;;;;;5045847;28;20424;-79
2021/03/11 09:43:39;;;;;;;4.80;4.40;;;9.90;99.90;;;;;;5045192;28;20434;-77
2021/03/11 09:46:11;;;;;;;5.23;4.20;;;9.90;99.90;;;;;;5069244;28;20420;-79
2021/03/11 09:48:44;;;;;;;5.17;4.10;;;9.90;99.90;;;;;;5059342;28;20968;-79
2021/03/11 09:51:30;;;;;;;5.30;4.80;;;9.90;99.90;;;;;;5064346;28;20840;-80
2021/03/11 09:53:59;;;;;;;3.97;3.63;;;9.90;99.90;;;;;;5065761;28;20397;-79
2021/03/11 09:56:37;;;;;;;7.83;5.67;;;9.90;99.90;;;;;;5070532;28;20416;-79
2021/03/11 09:59:04;;;;;;;6.50;4.77;;;9.90;99.90;;;;;;5048948;28;20440;-78
2021/03/11 10:01:34;;;;;;;4.93;4.10;;;9.80;99.90;;;;;;5067422;28;20427;-79
2021/03/11 10:04:02;;;;;;;5.47;4.90;;;9.80;99.90;;;;;;5068166;28;20420;-80
2021/03/11 10:06:29;;;;;;;5.00;4.50;;;9.70;99.90;;;;;;5071437;28;20442;-79
2021/03/11 10:08:57;;;;;;;5.53;5.03;;;9.70;99.90;;;;;;5070043;28;20441;-79
2021/03/11 10:11:32;;;;;;;3.70;3.40;;;9.70;99.90;;;;;;5073388;28;20464;-80
2021/03/11 10:14:02;;;;;;;5.10;4.60;;;9.60;99.90;;;;;;5077205;28;20431;-79
2021/03/11 10:16:30;;;;;;;5.27;4.40;;;9.60;99.90;;;;;;5063818;28;20428;-79
2021/03/11 10:19:15;;;;;;;4.50;4.10;;;9.60;99.90;;;;;;5076826;28;20449;-80
2021/03/11 10:21:51;;;;;;;4.93;4.47;;;9.50;99.90;;;;;;5077858;28;20493;-79
2021/03/11 10:24:39;;;;;;;4.77;4.37;;;9.50;99.90;;;;;;5053865;28;20420;-78
2021/03/11 10:27:17;;;;;;;5.57;5.03;;;9.50;99.90;;;;;;5076855;28;20428;-79
2021/03/11 10:29:44;;;;;;;5.60;4.80;;;9.50;99.90;;;;;;5055891;28;20487;-78
2021/03/11 10:32:09;;;;;;;5.23;4.23;;;9.50;99.90;;;;;;5079396;28;20420;-78
2021/03/11 10:34:49;;;;;;;7.20;5.00;;;9.50;99.90;;;;;;5051131;28;20417;-77
2021/03/11 10:37:34;;;;;;;5.33;4.90;;;9.50;99.90;;;;;;5066101;28;20186;-78
2021/03/11 10:40:03;;;;;;;5.43;4.93;;;9.50;99.90;;;;;;5069433;28;20460;-79
2021/03/11 10:42:58;;;;;;;5.47;4.97;;;9.50;99.90;;;;;;5076651;28;20408;-78
2021/03/11 10:45:26;;;;;;;6.13;5.57;;;9.50;99.90;;;;;;4997097;28;20466;-77
2021/03/11 10:48:00;;;;;;;4.83;4.43;;;9.60;99.90;;;;;;5008828;28;20484;-78
2021/03/11 10:50:27;;;;;;;6.43;5.93;;;9.60;99.90;;;;;;5005435;28;20471;-77
2021/03/11 10:52:55;;;;;;;6.73;6.13;;;9.60;99.90;;;;;;5011346;28;20494;-79
2021/03/11 10:55:27;;;;;;;5.90;5.40;;;9.60;99.90;;;;;;5015895;28;20959;-79
2021/03/11 10:57:53;;;;;;;5.63;5.13;;;9.60;99.90;;;;;;5022134;28;20477;-78
2021/03/11 11:00:24;;;;;;;5.53;5.10;;;9.60;99.90;;;;;;5005194;28;20440;-81
2021/03/11 11:02:53;;;;;;;5.43;4.97;;;9.60;99.90;;;;;;5006096;28;20297;-79
2021/03/11 11:05:19;;;;;;;5.43;5.03;;;9.60;99.90;;;;;;5006716;28;20435;-79
2021/03/11 11:07:45;;;;;;;5.90;4.57;;;9.60;99.90;;;;;;5009378;28;20485;-79
2021/03/11 11:10:11;;;;;;;7.27;5.77;;;9.70;99.90;;;;;;5010368;28;21011;-80
2021/03/11 11:12:36;;;;;;;5.87;5.23;;;9.80;99.90;;;;;;5014810;28;20214;-79
2021/03/11 11:15:03;;;;;;;9.97;8.77;;;9.90;99.90;;;;;;5018816;28;20966;-80
2021/03/11 11:17:28;;;;;;;5.03;3.87;;;10.00;99.90;;;;;;5002833;28;20185;-79
2021/03/11 11:19:54;;;;;;;4.63;3.07;;;10.30;99.90;;;;;;5013428;28;20459;-81
2021/03/11 11:22:20;;;;;;;1.80;1.63;;;10.60;99.90;;;;;;5052925;28;20263;-81
2021/03/11 11:24:45;;;;;;;2.10;1.93;;;10.90;99.90;;;;;;5069726;28;20212;-80
2021/03/11 11:27:13;;;;;;;2.20;1.83;;;11.10;99.90;;;;;;5070622;28;20178;-80
2021/03/11 11:29:39;;;;;;;6.87;2.70;;;11.30;99.90;;;;;;5071802;28;20217;-79
2021/03/11 11:32:06;;;;;;;2.30;2.10;;;11.40;99.90;;;;;;5068372;28;20428;-81
2021/03/11 11:34:31;;;;;;;2.70;2.17;;;11.40;99.90;;;;;;5060403;28;20179;-79
2021/03/11 11:36:57;;;;;;;2.30;2.13;;;11.40;99.90;;;;;;5065395;28;20949;-79
2021/03/11 11:39:23;;;;;;;2.43;2.10;;;11.40;99.90;;;;;;5070012;28;20221;-79
2021/03/11 11:41:50;;;;;;;2.20;1.90;;;11.40;99.90;;;;;;5066030;28;20178;-80
2021/03/11 11:44:17;;;;;;;2.60;2.23;;;11.50;99.90;;;;;;5069017;28;20200;-79
2021/03/11 11:46:43;;;;;;;2.57;2.33;;;11.60;99.90;;;;;;5051230;28;20425;-79
2021/03/11 11:49:09;;;;;;;3.20;2.00;;;11.70;99.90;;;;;;5068421;28;20445;-80
2021/03/11 11:51:35;;;;;;;2.67;2.23;;;11.70;99.90;;;;;;5068614;28;20425;-79
2021/03/11 11:54:01;;;;;;;1.80;1.70;;;11.70;99.90;;;;;;5064928;28;20416;-80
2021/03/11 11:56:27;;;;;;;2.50;2.30;;;11.70;99.90;;;;;;5058902;28;20769;-80
2021/03/11 11:58:52;;;;;;;2.53;2.33;;;11.70;99.90;;;;;;5063865;28;20269;-79
2021/03/11 12:01:18;;;;;;;2.30;2.10;;;11.70;99.90;;;;;;5043427;28;20216;-79
2021/03/11 12:03:44;;;;;;;2.60;2.40;;;11.60;99.90;;;;;;5065574;28;20190;-79
2021/03/11 12:06:10;;;;;;;2.77;2.57;;;11.60;99.90;;;;;;5066109;28;20186;-79
2021/03/11 12:08:36;;;;;;;3.20;2.90;;;11.60;99.90;;;;;;5068877;28;20336;-78
2021/03/11 12:11:02;;;;;;;2.33;2.13;;;11.60;99.90;;;;;;5064023;28;20297;-78
2021/03/11 12:13:28;;;;;;;2.00;1.90;;;11.60;99.90;;;;;;5070626;28;20443;-80
2021/03/11 12:15:54;;;;;;;4.57;2.60;;;11.50;99.90;;;;;;5065400;28;20453;-77
2021/03/11 12:18:19;;;;;;;2.03;1.83;;;11.50;99.90;;;;;;5069197;28;20454;-80
2021/03/11 12:20:45;;;;;;;2.83;2.47;;;11.40;99.90;;;;;;5077779;28;20201;-79
2021/03/11 12:23:11;;;;;;;4.23;3.10;;;11.40;99.90;;;;;;5072597;28;20175;-80
2021/03/11 12:25:36;;;;;;;4.40;3.37;;;11.30;99.90;;;;;;5066365;28;20214;-77
2021/03/11 12:28:03;;;;;;;2.90;2.60;;;11.30;99.90;;;;;;5074556;28;20238;-79
2021/03/11 12:30:30;;;;;;;2.60;2.40;;;11.30;99.90;;;;;;5085843;28;20281;-78
2021/03/11 12:32:56;;;;;;;4.33;3.00;;;11.30;99.90;;;;;;5080323;28;20457;-80
2021/03/11 12:35:22;;;;;;;2.60;2.40;;;11.30;99.90;;;;;;5048995;28;20952;-79
2021/03/11 12:37:49;;;;;;;2.73;2.53;;;11.30;99.90;;;;;;5071979;28;20981;-79
2021/03/11 12:40:15;;;;;;;2.73;2.50;;;11.30;99.90;;;;;;5072225;28;20908;-80
2021/03/11 12:42:41;;;;;;;2.50;2.30;;;11.30;99.90;;;;;;5073589;28;20469;-81
2021/03/11 12:45:07;;;;;;;3.10;2.33;;;11.40;99.90;;;;;;5072006;28;20827;-79
2021/03/11 12:47:33;;;;;;;3.50;2.80;;;11.60;99.90;;;;;;5083136;28;20420;-79
2021/03/11 12:49:59;;;;;;;2.67;2.20;;;11.70;99.90;;;;;;5083614;28;20894;-80
2021/03/11 12:52:24;;;;;;;3.27;2.60;;;11.70;99.90;;;;;;5080298;28;20159;-79
2021/03/11 12:54:50;;;;;;;3.60;2.20;;;11.70;99.90;;;;;;5079871;28;20177;-78
2021/03/11 12:57:15;;;;;;;3.80;2.30;;;11.80;99.90;;;;;;5069434;28;20208;-81
2021/03/11 12:59:41;;;;;;;2.93;2.30;;;11.90;99.90;;;;;;5069235;28;20213;-80